createdAt,value
2022-10-22T00:00:23.488Z,9.50
2022-10-22T00:03:26.374Z,7.57
2022-10-22T00:06:29.538Z,6.60
2022-10-22T00:09:32.532Z,5.30
2022-10-22T00:12:35.198Z,7.87
2022-10-22T00:15:38.019Z,7.18
2022-10-22T00:18:41.208Z,6.80
2022-10-22T00:21:44.018Z,5.97
2022-10-22T00:24:46.453Z,7.75
2022-10-22T00:27:49.308Z,6.05
2022-10-22T00:30:58.872Z,4.65
2022-10-22T00:34:02.324Z,5.60
2022-10-22T00:37:04.931Z,8.35
2022-10-22T00:40:08.429Z,9.10
2022-10-22T00:43:16.693Z,7.87
2022-10-22T00:49:21.729Z,10.73
2022-10-22T00:52:25.337Z,5.12
2022-10-22T00:55:29.706Z,6.72
2022-10-22T00:58:37.056Z,6.70
2022-10-22T01:01:40.089Z,5.43
2022-10-22T01:04:43.060Z,8.20
2022-10-22T01:07:50.323Z,6.50
2022-10-22T01:11:17.299Z,9.00
2022-10-22T01:14:51.646Z,6.15
2022-10-22T01:17:59.382Z,7.32
2022-10-22T01:21:16.601Z,5.87
2022-10-22T01:24:34.603Z,6.97
2022-10-22T01:27:57.216Z,6.53
2022-10-22T01:31:02.430Z,6.80
2022-10-22T01:34:08.232Z,5.20
2022-10-22T01:37:14.679Z,7.25
2022-10-22T01:40:17.999Z,5.35
2022-10-22T01:43:20.684Z,6.62
2022-10-22T01:46:26.960Z,6.78
2022-10-22T01:49:53.991Z,6.10
2022-10-22T01:53:20.987Z,5.22
2022-10-22T01:56:45.831Z,5.30
2022-10-22T01:59:57.210Z,4.47
2022-10-22T02:03:11.408Z,6.40
2022-10-22T02:06:19.160Z,5.93
2022-10-22T02:09:25.316Z,6.00
2022-10-22T02:12:30.967Z,6.75
2022-10-22T02:15:36.037Z,7.40
2022-10-22T02:18:43.061Z,6.65
2022-10-22T02:21:45.879Z,6.93
2022-10-22T02:24:49.343Z,5.40
2022-10-22T02:28:31.934Z,6.72
2022-10-22T02:31:39.762Z,7.43
2022-10-22T02:34:42.175Z,8.00
2022-10-22T02:37:45.648Z,5.68
2022-10-22T02:40:48.108Z,5.37
2022-10-22T02:43:54.277Z,4.47
2022-10-22T02:46:57.084Z,4.30
2022-10-22T02:49:59.783Z,5.53
2022-10-22T02:53:02.449Z,6.40
2022-10-22T02:56:05.684Z,6.25
2022-10-22T02:59:08.044Z,10.15
2022-10-22T03:02:10.756Z,8.60
2022-10-22T03:05:13.437Z,5.97
2022-10-22T03:08:16.418Z,7.90
2022-10-22T03:11:19.126Z,3.92
2022-10-22T03:14:21.947Z,7.00
2022-10-22T03:17:24.438Z,4.95
2022-10-22T03:20:27.614Z,4.45
2022-10-22T03:23:31.808Z,4.57
2022-10-22T03:26:35.081Z,6.55
2022-10-22T03:29:39.275Z,7.00
2022-10-22T03:32:42.021Z,6.18
2022-10-22T03:35:47.482Z,4.97
2022-10-22T03:38:50.264Z,8.82
2022-10-22T03:41:53.424Z,6.53
2022-10-22T03:44:56.103Z,5.80
2022-10-22T03:47:58.534Z,5.32
2022-10-22T03:51:01.269Z,5.03
2022-10-22T03:54:04.200Z,6.40
2022-10-22T03:57:07.031Z,6.90
2022-10-22T04:00:09.932Z,5.07
2022-10-22T04:03:13.647Z,7.40
2022-10-22T04:06:16.384Z,8.13
2022-10-22T04:09:19.153Z,5.70
2022-10-22T04:12:21.556Z,8.80
2022-10-22T04:15:26.846Z,7.57
2022-10-22T04:18:29.408Z,6.47
2022-10-22T04:21:32.264Z,6.93
2022-10-22T04:24:34.764Z,4.62
2022-10-22T04:27:37.663Z,9.27
2022-10-22T04:30:40.234Z,7.20
2022-10-22T04:33:43.502Z,6.47
2022-10-22T04:36:45.907Z,5.95
2022-10-22T04:39:48.803Z,7.10
2022-10-22T04:42:51.166Z,7.22
2022-10-22T04:45:53.851Z,7.15
2022-10-22T04:48:56.551Z,7.30
2022-10-22T04:51:59.289Z,7.75
2022-10-22T04:55:01.780Z,5.55
2022-10-22T04:58:04.718Z,8.73
2022-10-22T05:01:12.978Z,7.37
2022-10-22T05:07:19.068Z,4.12
2022-10-22T05:10:21.756Z,7.05
2022-10-22T05:13:24.230Z,5.35
2022-10-22T05:16:29.343Z,6.12
2022-10-22T05:19:32.134Z,5.43
2022-10-22T05:22:35.167Z,11.43
2022-10-22T05:25:39.066Z,8.02
2022-10-22T05:28:42.179Z,5.55
2022-10-22T05:31:44.668Z,7.90
2022-10-22T05:34:47.411Z,6.03
2022-10-22T05:37:50.012Z,7.15
2022-10-22T05:41:04.750Z,6.72
2022-10-22T05:44:07.322Z,6.35
2022-10-22T05:47:10.061Z,7.20
2022-10-22T05:50:12.444Z,7.85
2022-10-22T05:53:15.174Z,7.00
2022-10-22T05:56:17.651Z,6.55
2022-10-22T05:59:20.480Z,11.70
2022-10-22T06:02:22.901Z,11.18
2022-10-22T06:05:25.630Z,8.93
2022-10-22T06:08:29.110Z,7.40
2022-10-22T06:11:34.318Z,6.60
2022-10-22T06:14:37.883Z,8.30
2022-10-22T06:17:40.545Z,7.90
2022-10-22T06:20:43.755Z,8.10
2022-10-22T06:23:46.544Z,9.40
2022-10-22T06:26:52.640Z,9.00
2022-10-22T06:29:55.358Z,5.75
2022-10-22T06:32:57.804Z,6.55
2022-10-22T06:36:12.229Z,8.10
2022-10-22T06:39:17.119Z,8.68
2022-10-22T06:42:19.870Z,7.53
2022-10-22T06:45:25.023Z,8.68
2022-10-22T06:48:28.012Z,12.18
2022-10-22T06:51:30.442Z,12.30
2022-10-22T06:54:33.414Z,9.32
2022-10-22T06:57:35.898Z,10.30
2022-10-22T07:00:38.646Z,10.70
2022-10-22T07:03:42.161Z,7.93
2022-10-22T07:06:44.843Z,7.62
2022-10-22T07:09:50.583Z,7.53
2022-10-22T07:12:54.202Z,10.43
2022-10-22T07:15:56.684Z,7.75
2022-10-22T07:19:01.040Z,9.63
2022-10-22T07:22:03.907Z,7.35
2022-10-22T07:25:07.611Z,9.32
2022-10-22T07:28:10.611Z,10.23
2022-10-22T07:31:15.259Z,11.15
2022-10-22T07:34:17.955Z,9.20
2022-10-22T07:37:22.069Z,7.32
2022-10-22T07:40:24.528Z,10.57
2022-10-22T07:43:27.636Z,9.45
2022-10-22T07:46:30.074Z,9.63
2022-10-22T07:49:32.858Z,13.05
2022-10-22T07:52:35.345Z,8.95
2022-10-22T07:55:38.032Z,11.45
2022-10-22T07:58:41.562Z,8.68
2022-10-22T08:01:44.342Z,10.60
2022-10-22T08:04:47.155Z,10.20
2022-10-22T08:07:49.676Z,8.32
2022-10-22T08:10:53.806Z,9.15
2022-10-22T08:13:56.320Z,10.95
2022-10-22T08:16:59.077Z,9.32
2022-10-22T08:20:01.580Z,11.15
2022-10-22T08:23:04.271Z,9.93
2022-10-22T08:26:06.720Z,12.35
2022-10-22T08:29:09.565Z,10.35
2022-10-22T08:32:12.152Z,11.45
2022-10-22T08:35:16.972Z,10.43
2022-10-22T08:38:20.719Z,12.50
2022-10-22T08:41:24.656Z,8.55
2022-10-22T08:44:45.664Z,10.52
2022-10-22T08:48:09.690Z,10.13
2022-10-22T08:51:16.467Z,10.05
2022-10-22T08:54:32.114Z,9.07
2022-10-22T08:58:00.982Z,9.02
2022-10-22T09:01:14.083Z,10.15
2022-10-22T09:04:42.585Z,10.30
2022-10-22T09:07:50.498Z,12.55
2022-10-22T09:11:05.885Z,10.18
2022-10-22T09:17:36.731Z,9.85
2022-10-22T09:20:53.198Z,11.77
2022-10-22T09:24:20.183Z,11.05
2022-10-22T09:27:27.920Z,10.10
2022-10-22T09:30:36.701Z,11.73
2022-10-22T09:33:41.408Z,10.40
2022-10-22T09:36:43.802Z,11.82
2022-10-22T09:39:51.241Z,10.20
2022-10-22T09:42:53.736Z,11.93
2022-10-22T09:45:59.244Z,11.48
2022-10-22T09:49:03.755Z,11.57
2022-10-22T09:52:27.524Z,9.50
2022-10-22T09:55:29.950Z,11.38
2022-10-22T09:58:43.605Z,11.57
2022-10-22T10:01:46.021Z,10.77
2022-10-22T10:04:51.872Z,13.55
2022-10-22T10:07:54.342Z,9.90
2022-10-22T10:11:02.691Z,12.10
2022-10-22T10:14:28.017Z,12.88
2022-10-22T10:17:41.967Z,11.70
2022-10-22T10:20:50.519Z,13.02
2022-10-22T10:24:05.060Z,12.98
2022-10-22T10:27:15.077Z,12.63
2022-10-22T10:30:25.890Z,11.85
2022-10-22T10:33:41.302Z,12.75
2022-10-22T10:37:19.240Z,12.43
2022-10-22T10:40:58.450Z,11.45
2022-10-22T10:44:22.853Z,11.80
2022-10-22T10:47:44.292Z,13.50
2022-10-22T10:51:11.522Z,13.60
2022-10-22T10:54:26.126Z,11.95
2022-10-22T10:57:51.146Z,12.05
2022-10-22T11:00:57.512Z,14.15
2022-10-22T11:04:41.332Z,11.70
2022-10-22T11:07:56.093Z,12.40
2022-10-22T11:11:21.521Z,11.93
2022-10-22T11:14:31.912Z,12.07
2022-10-22T11:17:42.657Z,12.15
2022-10-22T11:21:18.780Z,13.80
2022-10-22T11:24:47.732Z,13.52
2022-10-22T11:28:42.118Z,13.07
2022-10-22T11:31:45.530Z,14.13
2022-10-22T11:34:54.977Z,11.82
2022-10-22T11:37:58.591Z,14.00
2022-10-22T11:41:04.653Z,12.98
2022-10-22T11:44:07.258Z,11.77
2022-10-22T11:47:24.021Z,14.73
2022-10-22T11:50:47.036Z,13.53
2022-10-22T11:53:56.569Z,14.32
2022-10-22T11:57:14.550Z,13.85
2022-10-22T12:00:35.576Z,13.27
2022-10-22T12:03:53.187Z,14.05
2022-10-22T12:07:03.540Z,14.77
2022-10-22T12:10:18.877Z,13.32
2022-10-22T12:13:24.802Z,12.45
2022-10-22T12:16:54.607Z,16.65
2022-10-22T12:20:12.844Z,17.35
2022-10-22T12:23:15.788Z,17.62
2022-10-22T12:29:38.578Z,15.48
2022-10-22T12:32:41.427Z,15.15
2022-10-22T12:35:46.086Z,13.95
2022-10-22T12:38:48.998Z,13.68
2022-10-22T12:41:54.008Z,12.13
2022-10-22T12:44:56.692Z,15.98
2022-10-22T12:48:02.983Z,14.40
2022-10-22T12:51:09.588Z,16.30
2022-10-22T12:54:23.443Z,16.37
2022-10-22T12:57:25.880Z,13.57
2022-10-22T13:00:34.545Z,13.20
2022-10-22T13:03:41.706Z,15.52
2022-10-22T13:06:47.226Z,14.17
2022-10-22T13:09:59.661Z,16.00
2022-10-22T13:13:09.079Z,13.93
2022-10-22T13:16:21.841Z,16.58
2022-10-22T13:19:52.506Z,13.80
2022-10-22T13:23:02.836Z,15.45
2022-10-22T13:26:18.303Z,18.23
2022-10-22T13:29:22.545Z,14.23
2022-10-22T13:32:31.651Z,14.18
2022-10-22T13:35:36.338Z,15.65
2022-10-22T13:38:39.461Z,16.05
2022-10-22T13:44:44.712Z,13.77
2022-10-22T13:47:53.229Z,14.87
2022-10-22T13:50:55.946Z,14.38
2022-10-22T13:53:58.503Z,14.00
2022-10-22T13:57:01.320Z,12.98
2022-10-22T14:00:04.087Z,13.75
2022-10-22T14:03:21.489Z,17.77
2022-10-22T14:06:28.389Z,15.90
2022-10-22T14:09:30.787Z,14.75
2022-10-22T14:12:33.483Z,14.05
2022-10-22T14:15:36.330Z,15.82
2022-10-22T14:18:39.180Z,15.05
2022-10-22T14:21:41.700Z,15.52
2022-10-22T14:24:45.617Z,16.37
2022-10-22T14:27:51.199Z,16.95
2022-10-22T14:30:55.205Z,17.37
2022-10-22T14:33:57.619Z,15.82
2022-10-22T14:37:00.406Z,17.70
2022-10-22T14:40:02.908Z,16.58
2022-10-22T14:43:05.929Z,14.65
2022-10-22T14:46:11.040Z,15.13
2022-10-22T14:49:13.807Z,16.67
2022-10-22T14:52:16.331Z,13.43
2022-10-22T14:55:19.945Z,15.48
2022-10-22T14:58:22.601Z,14.70
2022-10-22T15:01:25.689Z,13.77
2022-10-22T15:04:28.433Z,14.38
2022-10-22T15:07:31.230Z,10.77
2022-10-22T15:10:33.785Z,13.20
2022-10-22T15:13:36.590Z,11.30
2022-10-22T15:16:39.163Z,12.55
2022-10-22T15:19:43.558Z,10.52
2022-10-22T15:22:46.156Z,11.90
2022-10-22T15:25:48.918Z,13.45
2022-10-22T15:28:51.543Z,11.38
2022-10-22T15:32:00.506Z,12.57
2022-10-22T15:35:05.764Z,13.50
2022-10-22T15:38:09.290Z,11.90
2022-10-22T15:41:13.425Z,13.70
2022-10-22T15:44:19.501Z,11.45
2022-10-22T15:47:22.640Z,12.80
2022-10-22T15:50:26.269Z,13.15
2022-10-22T15:53:28.937Z,13.40
2022-10-22T15:56:32.448Z,14.68
2022-10-22T15:59:35.993Z,13.52
2022-10-22T16:02:39.165Z,12.35
2022-10-22T16:05:50.666Z,14.25
2022-10-22T16:08:54.814Z,11.18
2022-10-22T16:11:57.693Z,16.25
2022-10-22T16:15:00.352Z,13.23
2022-10-22T16:18:03.245Z,12.95
2022-10-22T16:21:06.039Z,13.82
2022-10-22T16:24:09.674Z,12.95
2022-10-22T16:27:13.575Z,13.98
2022-10-22T16:30:16.754Z,12.77
2022-10-22T16:33:19.387Z,12.35
2022-10-22T16:36:22.389Z,14.65
2022-10-22T16:39:25.220Z,13.52
2022-10-22T16:42:28.154Z,13.38
2022-10-22T16:45:30.883Z,11.30
2022-10-22T16:48:34.268Z,11.90
2022-10-22T16:51:36.944Z,11.80
2022-10-22T16:54:40.364Z,11.30
2022-10-22T16:57:43.513Z,11.30
2022-10-22T17:00:53.993Z,11.60
2022-10-22T17:03:59.542Z,11.18
2022-10-22T17:07:02.536Z,15.75
2022-10-22T17:10:05.974Z,11.02
2022-10-22T17:13:08.959Z,10.90
2022-10-22T17:16:15.550Z,18.33
2022-10-22T17:19:18.624Z,9.30
2022-10-22T17:22:21.649Z,14.27
2022-10-22T17:25:36.072Z,13.35
2022-10-22T17:28:39.048Z,12.77
2022-10-22T17:31:42.904Z,12.05
2022-10-22T17:34:46.081Z,13.05
2022-10-22T17:37:49.089Z,11.27
2022-10-22T17:40:51.815Z,13.68
2022-10-22T17:43:56.331Z,12.52
2022-10-22T17:47:01.069Z,12.77
2022-10-22T17:50:04.525Z,14.18
2022-10-22T17:53:09.321Z,13.98
2022-10-22T17:56:15.952Z,15.85
2022-10-22T17:59:19.092Z,15.80
2022-10-22T18:02:22.094Z,13.80
2022-10-22T18:05:26.153Z,13.70
2022-10-22T18:08:28.900Z,14.60
2022-10-22T18:11:32.557Z,13.27
2022-10-22T18:14:35.265Z,11.32
2022-10-22T18:17:39.755Z,15.65
2022-10-22T18:20:42.814Z,14.68
2022-10-22T18:23:46.380Z,14.57
2022-10-22T18:26:50.260Z,12.93
2022-10-22T18:29:53.345Z,11.70
2022-10-22T18:32:56.111Z,15.10
2022-10-22T18:36:07.930Z,10.98
2022-10-22T18:39:14.560Z,9.90
2022-10-22T18:42:20.735Z,12.32
2022-10-22T18:45:24.027Z,12.18
2022-10-22T18:48:27.311Z,16.27
2022-10-22T18:51:30.912Z,14.55
2022-10-22T18:54:35.256Z,14.07
2022-10-22T18:57:37.983Z,17.90
2022-10-22T19:00:41.160Z,12.10
2022-10-22T19:03:44.468Z,16.27
2022-10-22T19:06:47.662Z,14.77
2022-10-22T19:09:50.459Z,18.42
2022-10-22T19:12:53.531Z,12.23
2022-10-22T19:16:02.506Z,14.73
2022-10-22T19:19:07.251Z,12.45
2022-10-22T19:22:10.007Z,13.05
2022-10-22T19:25:13.029Z,17.67
2022-10-22T19:28:16.008Z,14.30
2022-10-22T19:31:22.157Z,18.75
2022-10-22T19:34:25.219Z,15.13
2022-10-22T19:37:28.608Z,17.00
2022-10-22T19:40:31.442Z,15.43
2022-10-22T19:43:35.063Z,12.60
2022-10-22T19:46:37.925Z,13.60
2022-10-22T19:49:42.459Z,18.48
2022-10-22T19:52:46.232Z,14.35
2022-10-22T19:55:49.114Z,18.00
2022-10-22T19:58:51.924Z,17.00
2022-10-22T20:01:54.958Z,12.82
2022-10-22T20:04:57.933Z,13.25
2022-10-22T20:08:00.719Z,14.63
2022-10-22T20:11:10.770Z,12.40
2022-10-22T20:14:14.080Z,12.07
2022-10-22T20:17:17.082Z,18.23
2022-10-22T20:20:21.978Z,14.20
2022-10-22T20:23:28.557Z,12.88
2022-10-22T20:26:31.752Z,15.90
2022-10-22T20:29:35.027Z,15.50
2022-10-22T20:32:38.613Z,14.90
2022-10-22T20:35:42.451Z,18.60
2022-10-22T20:38:48.118Z,12.37
2022-10-22T20:41:51.372Z,13.50
2022-10-22T20:44:54.033Z,12.20
2022-10-22T20:48:02.685Z,12.45
2022-10-22T20:51:05.790Z,17.40
2022-10-22T20:54:09.209Z,14.18
2022-10-22T20:57:13.395Z,14.20
2022-10-22T21:00:16.489Z,15.25
2022-10-22T21:03:19.354Z,15.02
2022-10-22T21:06:23.330Z,17.77
2022-10-22T21:09:25.963Z,11.25
2022-10-22T21:12:28.701Z,12.27
2022-10-22T21:15:31.047Z,14.15
2022-10-22T21:18:34.852Z,14.10
2022-10-22T21:21:37.522Z,14.23
2022-10-22T21:24:41.185Z,14.80
2022-10-22T21:27:43.701Z,14.23
2022-10-22T21:30:46.570Z,16.83
2022-10-22T21:33:49.982Z,16.98
2022-10-22T21:36:53.049Z,14.60
2022-10-22T21:39:56.176Z,14.30
2022-10-22T21:42:58.940Z,11.35
2022-10-22T21:46:15.514Z,19.85
2022-10-22T21:49:18.226Z,16.33
2022-10-22T21:52:20.682Z,12.37
2022-10-22T21:55:23.511Z,15.75
2022-10-22T21:58:26.396Z,14.60
2022-10-22T22:01:29.155Z,14.00
2022-10-22T22:04:32.021Z,15.90
2022-10-22T22:07:34.472Z,13.60
2022-10-22T22:10:37.176Z,15.10
2022-10-22T22:13:42.293Z,18.87
2022-10-22T22:16:45.070Z,17.87
2022-10-22T22:19:47.564Z,19.20
2022-10-22T22:22:50.260Z,18.37
2022-10-22T22:25:52.777Z,14.57
2022-10-22T22:28:56.201Z,15.40
2022-10-22T22:31:58.582Z,18.98
2022-10-22T22:35:01.399Z,15.32
2022-10-22T22:38:04.110Z,17.55
2022-10-22T22:41:08.011Z,15.90
2022-10-22T22:44:10.385Z,16.92
2022-10-22T22:47:13.100Z,16.45
2022-10-22T22:50:15.595Z,17.30
2022-10-22T22:53:18.424Z,18.35
2022-10-22T22:56:23.867Z,16.05
2022-10-22T22:59:26.721Z,18.17
2022-10-22T23:02:29.081Z,17.33
2022-10-22T23:05:31.826Z,21.12
2022-10-22T23:08:34.444Z,18.30
2022-10-22T23:11:37.727Z,19.48
2022-10-22T23:14:40.153Z,16.48
2022-10-22T23:17:42.878Z,18.33
2022-10-22T23:20:45.324Z,17.27
2022-10-22T23:23:50.297Z,17.37
2022-10-22T23:26:55.171Z,20.42
2022-10-22T23:29:58.179Z,21.20
2022-10-22T23:33:00.687Z,17.62
2022-10-22T23:36:07.006Z,25.25
2022-10-22T23:39:15.807Z,17.62
2022-10-22T23:42:18.533Z,19.00
2022-10-22T23:45:21.136Z,22.70
2022-10-22T23:48:24.297Z,16.87
2022-10-22T23:51:27.247Z,16.92
2022-10-22T23:54:30.095Z,17.60
2022-10-22T23:57:32.631Z,21.60
